sensor_id;sensor_type;location;lat;lon;timestamp;P1;durP1;ratioP1;P2;durP2;ratioP2
38859;SDS011;24609;48.316;16.174;2023-12-28T00:00:47;21.15;;;13.15;;
38859;SDS011;24609;48.316;16.174;2023-12-28T00:03:13;20.23;;;12.38;;
38859;SDS011;24609;48.316;16.174;2023-12-28T00:05:39;16.20;;;10.75;;
38859;SDS011;24609;48.316;16.174;2023-12-28T00:08:04;16.33;;;11.57;;
38859;SDS011;24609;48.316;16.174;2023-12-28T00:10:30;21.00;;;13.10;;
38859;SDS011;24609;48.316;16.174;2023-12-28T00:12:56;28.80;;;18.40;;
38859;SDS011;24609;48.316;16.174;2023-12-28T00:15:22;24.17;;;14.20;;
38859;SDS011;24609;48.316;16.174;2023-12-28T00:17:48;25.50;;;13.35;;
38859;SDS011;24609;48.316;16.174;2023-12-28T00:20:13;24.60;;;13.90;;
38859;SDS011;24609;48.316;16.174;2023-12-28T00:22:39;25.08;;;15.05;;
38859;SDS011;24609;48.316;16.174;2023-12-28T00:25:05;24.38;;;13.82;;
38859;SDS011;24609;48.316;16.174;2023-12-28T00:27:31;20.98;;;12.82;;
38859;SDS011;24609;48.316;16.174;2023-12-28T00:29:59;14.18;;;10.55;;
38859;SDS011;24609;48.316;16.174;2023-12-28T00:32:25;21.70;;;12.80;;
38859;SDS011;24609;48.316;16.174;2023-12-28T00:34:51;23.88;;;14.95;;
38859;SDS011;24609;48.316;16.174;2023-12-28T00:37:16;19.05;;;11.50;;
38859;SDS011;24609;48.316;16.174;2023-12-28T00:39:42;21.15;;;13.00;;
38859;SDS011;24609;48.316;16.174;2023-12-28T00:42:09;18.58;;;11.07;;
38859;SDS011;24609;48.316;16.174;2023-12-28T00:44:35;16.45;;;10.85;;
38859;SDS011;24609;48.316;16.174;2023-12-28T00:47:00;16.67;;;10.50;;
38859;SDS011;24609;48.316;16.174;2023-12-28T00:49:26;19.95;;;12.98;;
38859;SDS011;24609;48.316;16.174;2023-12-28T00:51:52;17.75;;;11.50;;
38859;SDS011;24609;48.316;16.174;2023-12-28T00:54:18;22.30;;;15.48;;
38859;SDS011;24609;48.316;16.174;2023-12-28T00:56:44;27.48;;;17.65;;
38859;SDS011;24609;48.316;16.174;2023-12-28T00:59:10;24.45;;;13.75;;
38859;SDS011;24609;48.316;16.174;2023-12-28T01:01:35;18.83;;;12.55;;
38859;SDS011;24609;48.316;16.174;2023-12-28T01:04:01;21.65;;;13.35;;
38859;SDS011;24609;48.316;16.174;2023-12-28T01:06:27;29.35;;;14.45;;
38859;SDS011;24609;48.316;16.174;2023-12-28T01:08:54;23.15;;;13.60;;
38859;SDS011;24609;48.316;16.174;2023-12-28T01:11:20;20.40;;;12.50;;
38859;SDS011;24609;48.316;16.174;2023-12-28T01:13:46;21.75;;;14.35;;
38859;SDS011;24609;48.316;16.174;2023-12-28T01:16:12;24.45;;;14.52;;
38859;SDS011;24609;48.316;16.174;2023-12-28T01:18:38;27.80;;;17.15;;
38859;SDS011;24609;48.316;16.174;2023-12-28T01:21:04;23.52;;;14.45;;
38859;SDS011;24609;48.316;16.174;2023-12-28T01:23:31;21.35;;;14.38;;
38859;SDS011;24609;48.316;16.174;2023-12-28T01:25:57;19.02;;;13.15;;
38859;SDS011;24609;48.316;16.174;2023-12-28T01:28:22;21.10;;;13.13;;
38859;SDS011;24609;48.316;16.174;2023-12-28T01:30:48;25.08;;;14.43;;
38859;SDS011;24609;48.316;16.174;2023-12-28T01:33:14;19.33;;;12.48;;
38859;SDS011;24609;48.316;16.174;2023-12-28T01:35:40;19.00;;;11.80;;
38859;SDS011;24609;48.316;16.174;2023-12-28T01:38:07;20.05;;;13.57;;
38859;SDS011;24609;48.316;16.174;2023-12-28T01:40:33;25.45;;;14.88;;
38859;SDS011;24609;48.316;16.174;2023-12-28T01:42:58;23.23;;;13.43;;
38859;SDS011;24609;48.316;16.174;2023-12-28T01:45:24;25.73;;;14.63;;
38859;SDS011;24609;48.316;16.174;2023-12-28T01:47:50;24.10;;;13.95;;
38859;SDS011;24609;48.316;16.174;2023-12-28T01:50:18;22.92;;;12.88;;
38859;SDS011;24609;48.316;16.174;2023-12-28T01:52:45;19.92;;;12.00;;
38859;SDS011;24609;48.316;16.174;2023-12-28T01:55:11;21.92;;;13.20;;
38859;SDS011;24609;48.316;16.174;2023-12-28T01:57:38;25.17;;;13.48;;
38859;SDS011;24609;48.316;16.174;2023-12-28T02:00:04;18.17;;;12.30;;
38859;SDS011;24609;48.316;16.174;2023-12-28T02:02:31;22.90;;;12.68;;
38859;SDS011;24609;48.316;16.174;2023-12-28T02:04:58;24.23;;;13.98;;
38859;SDS011;24609;48.316;16.174;2023-12-28T02:07:24;20.73;;;13.32;;
38859;SDS011;24609;48.316;16.174;2023-12-28T02:09:50;19.60;;;12.52;;
38859;SDS011;24609;48.316;16.174;2023-12-28T02:12:16;21.02;;;12.85;;
38859;SDS011;24609;48.316;16.174;2023-12-28T02:14:42;26.13;;;15.00;;
38859;SDS011;24609;48.316;16.174;2023-12-28T02:17:23;24.60;;;14.30;;
38859;SDS011;24609;48.316;16.174;2023-12-28T02:19:50;20.80;;;12.60;;
38859;SDS011;24609;48.316;16.174;2023-12-28T02:22:19;20.05;;;12.77;;
38859;SDS011;24609;48.316;16.174;2023-12-28T02:27:35;19.75;;;13.20;;
38859;SDS011;24609;48.316;16.174;2023-12-28T02:40:17;108.05;;;23.10;;
38859;SDS011;24609;48.316;16.174;2023-12-28T02:42:43;71.90;;;18.35;;
38859;SDS011;24609;48.316;16.174;2023-12-28T02:45:09;78.25;;;19.63;;
38859;SDS011;24609;48.316;16.174;2023-12-28T02:47:35;104.07;;;22.15;;
38859;SDS011;24609;48.316;16.174;2023-12-28T02:50:01;70.72;;;21.67;;
38859;SDS011;24609;48.316;16.174;2023-12-28T02:52:27;74.45;;;22.90;;
38859;SDS011;24609;48.316;16.174;2023-12-28T02:54:53;62.70;;;19.23;;
38859;SDS011;24609;48.316;16.174;2023-12-28T02:57:18;53.20;;;19.70;;
38859;SDS011;24609;48.316;16.174;2023-12-28T02:59:47;98.53;;;23.58;;
38859;SDS011;24609;48.316;16.174;2023-12-28T03:02:13;73.25;;;21.25;;
38859;SDS011;24609;48.316;16.174;2023-12-28T03:04:39;115.18;;;27.08;;
38859;SDS011;24609;48.316;16.174;2023-12-28T03:07:04;100.15;;;26.85;;
38859;SDS011;24609;48.316;16.174;2023-12-28T03:09:32;118.15;;;26.17;;
38859;SDS011;24609;48.316;16.174;2023-12-28T03:11:59;104.85;;;29.17;;
38859;SDS011;24609;48.316;16.174;2023-12-28T03:14:25;61.00;;;24.10;;
38859;SDS011;24609;48.316;16.174;2023-12-28T03:16:51;34.92;;;20.23;;
38859;SDS011;24609;48.316;16.174;2023-12-28T03:19:17;26.52;;;18.08;;
38859;SDS011;24609;48.316;16.174;2023-12-28T03:21:43;29.27;;;18.30;;
38859;SDS011;24609;48.316;16.174;2023-12-28T03:24:08;26.35;;;18.35;;
38859;SDS011;24609;48.316;16.174;2023-12-28T03:26:38;24.23;;;15.82;;
38859;SDS011;24609;48.316;16.174;2023-12-28T03:29:05;21.65;;;15.18;;
38859;SDS011;24609;48.316;16.174;2023-12-28T03:31:31;29.30;;;16.77;;
38859;SDS011;24609;48.316;16.174;2023-12-28T03:33:56;23.58;;;15.98;;
38859;SDS011;24609;48.316;16.174;2023-12-28T03:36:23;28.00;;;16.48;;
38859;SDS011;24609;48.316;16.174;2023-12-28T03:38:49;33.80;;;18.00;;
38859;SDS011;24609;48.316;16.174;2023-12-28T03:41:18;41.72;;;21.08;;
38859;SDS011;24609;48.316;16.174;2023-12-28T03:43:44;35.38;;;18.58;;
38859;SDS011;24609;48.316;16.174;2023-12-28T03:46:10;31.83;;;17.02;;
38859;SDS011;24609;48.316;16.174;2023-12-28T03:48:36;39.13;;;18.73;;
38859;SDS011;24609;48.316;16.174;2023-12-28T03:51:02;37.92;;;17.50;;
38859;SDS011;24609;48.316;16.174;2023-12-28T03:53:29;41.30;;;18.30;;
38859;SDS011;24609;48.316;16.174;2023-12-28T03:55:56;48.45;;;18.65;;
38859;SDS011;24609;48.316;16.174;2023-12-28T03:58:23;49.55;;;19.25;;
38859;SDS011;24609;48.316;16.174;2023-12-28T04:00:48;68.95;;;22.75;;
38859;SDS011;24609;48.316;16.174;2023-12-28T04:03:14;105.45;;;27.45;;
38859;SDS011;24609;48.316;16.174;2023-12-28T04:05:40;106.60;;;26.92;;
38859;SDS011;24609;48.316;16.174;2023-12-28T04:08:06;57.60;;;20.38;;
38859;SDS011;24609;48.316;16.174;2023-12-28T04:10:33;44.35;;;20.42;;
38859;SDS011;24609;48.316;16.174;2023-12-28T04:12:59;40.30;;;19.20;;
38859;SDS011;24609;48.316;16.174;2023-12-28T04:15:28;44.83;;;20.50;;
38859;SDS011;24609;48.316;16.174;2023-12-28T04:17:54;40.88;;;18.95;;
38859;SDS011;24609;48.316;16.174;2023-12-28T04:20:20;42.58;;;17.58;;
38859;SDS011;24609;48.316;16.174;2023-12-28T04:22:45;36.17;;;17.92;;
38859;SDS011;24609;48.316;16.174;2023-12-28T04:25:11;37.38;;;17.55;;
38859;SDS011;24609;48.316;16.174;2023-12-28T04:27:37;35.85;;;17.80;;
38859;SDS011;24609;48.316;16.174;2023-12-28T04:30:04;41.63;;;19.33;;
38859;SDS011;24609;48.316;16.174;2023-12-28T04:32:30;48.63;;;18.63;;
38859;SDS011;24609;48.316;16.174;2023-12-28T04:34:59;45.53;;;17.63;;
38859;SDS011;24609;48.316;16.174;2023-12-28T04:37:25;57.38;;;17.50;;
38859;SDS011;24609;48.316;16.174;2023-12-28T04:39:53;101.60;;;25.63;;
38859;SDS011;24609;48.316;16.174;2023-12-28T04:42:19;115.70;;;25.17;;
38859;SDS011;24609;48.316;16.174;2023-12-28T04:44:44;55.20;;;18.77;;
38859;SDS011;24609;48.316;16.174;2023-12-28T04:47:10;67.82;;;20.20;;
38859;SDS011;24609;48.316;16.174;2023-12-28T04:49:36;81.95;;;21.42;;
38859;SDS011;24609;48.316;16.174;2023-12-28T04:52:01;51.42;;;17.50;;
38859;SDS011;24609;48.316;16.174;2023-12-28T04:54:27;68.90;;;18.08;;
38859;SDS011;24609;48.316;16.174;2023-12-28T04:56:53;53.08;;;17.13;;
38859;SDS011;24609;48.316;16.174;2023-12-28T04:59:19;124.55;;;28.58;;
38859;SDS011;24609;48.316;16.174;2023-12-28T05:01:44;106.30;;;21.63;;
38859;SDS011;24609;48.316;16.174;2023-12-28T05:04:10;84.03;;;20.30;;
38859;SDS011;24609;48.316;16.174;2023-12-28T05:06:36;104.43;;;19.95;;
38859;SDS011;24609;48.316;16.174;2023-12-28T05:09:02;116.40;;;21.08;;
38859;SDS011;24609;48.316;16.174;2023-12-28T05:11:29;91.53;;;23.08;;
38859;SDS011;24609;48.316;16.174;2023-12-28T05:13:54;66.32;;;19.55;;
38859;SDS011;24609;48.316;16.174;2023-12-28T05:16:20;92.95;;;19.02;;
38859;SDS011;24609;48.316;16.174;2023-12-28T05:18:46;155.63;;;23.20;;
38859;SDS011;24609;48.316;16.174;2023-12-28T05:21:12;188.77;;;27.48;;
38859;SDS011;24609;48.316;16.174;2023-12-28T05:23:38;103.55;;;20.38;;
38859;SDS011;24609;48.316;16.174;2023-12-28T05:26:04;68.50;;;18.20;;
38859;SDS011;24609;48.316;16.174;2023-12-28T05:28:31;71.15;;;17.92;;
38859;SDS011;24609;48.316;16.174;2023-12-28T05:30:56;69.28;;;18.80;;
38859;SDS011;24609;48.316;16.174;2023-12-28T05:33:24;73.93;;;18.25;;
38859;SDS011;24609;48.316;16.174;2023-12-28T05:35:50;74.97;;;20.88;;
38859;SDS011;24609;48.316;16.174;2023-12-28T05:38:16;78.13;;;22.40;;
38859;SDS011;24609;48.316;16.174;2023-12-28T05:40:42;62.40;;;21.48;;
38859;SDS011;24609;48.316;16.174;2023-12-28T05:43:09;60.67;;;22.63;;
38859;SDS011;24609;48.316;16.174;2023-12-28T05:45:35;67.43;;;21.88;;
38859;SDS011;24609;48.316;16.174;2023-12-28T05:48:01;91.80;;;24.65;;
38859;SDS011;24609;48.316;16.174;2023-12-28T05:50:27;91.13;;;28.05;;
38859;SDS011;24609;48.316;16.174;2023-12-28T05:52:52;95.95;;;25.23;;
38859;SDS011;24609;48.316;16.174;2023-12-28T05:55:18;105.70;;;26.50;;
38859;SDS011;24609;48.316;16.174;2023-12-28T05:57:44;86.68;;;23.02;;
38859;SDS011;24609;48.316;16.174;2023-12-28T06:00:09;63.35;;;21.58;;
38859;SDS011;24609;48.316;16.174;2023-12-28T06:02:36;56.85;;;19.15;;
38859;SDS011;24609;48.316;16.174;2023-12-28T06:05:01;84.30;;;23.95;;
38859;SDS011;24609;48.316;16.174;2023-12-28T06:07:27;105.78;;;25.75;;
38859;SDS011;24609;48.316;16.174;2023-12-28T06:09:53;134.98;;;29.05;;
38859;SDS011;24609;48.316;16.174;2023-12-28T06:12:18;77.32;;;22.67;;
38859;SDS011;24609;48.316;16.174;2023-12-28T06:14:44;132.90;;;25.38;;
38859;SDS011;24609;48.316;16.174;2023-12-28T06:17:10;80.05;;;22.83;;
38859;SDS011;24609;48.316;16.174;2023-12-28T06:19:35;162.80;;;35.20;;
38859;SDS011;24609;48.316;16.174;2023-12-28T06:22:01;117.97;;;23.48;;
38859;SDS011;24609;48.316;16.174;2023-12-28T06:24:27;141.05;;;28.15;;
38859;SDS011;24609;48.316;16.174;2023-12-28T06:26:52;116.63;;;25.20;;
38859;SDS011;24609;48.316;16.174;2023-12-28T06:29:18;78.32;;;19.88;;
38859;SDS011;24609;48.316;16.174;2023-12-28T06:31:43;98.78;;;21.65;;
38859;SDS011;24609;48.316;16.174;2023-12-28T06:34:09;65.97;;;19.58;;
38859;SDS011;24609;48.316;16.174;2023-12-28T06:36:35;126.90;;;26.75;;
38859;SDS011;24609;48.316;16.174;2023-12-28T06:39:00;113.00;;;24.48;;
38859;SDS011;24609;48.316;16.174;2023-12-28T06:41:26;65.82;;;20.13;;
38859;SDS011;24609;48.316;16.174;2023-12-28T06:43:52;85.65;;;20.52;;
38859;SDS011;24609;48.316;16.174;2023-12-28T06:46:18;146.50;;;30.90;;
38859;SDS011;24609;48.316;16.174;2023-12-28T06:48:44;145.00;;;30.75;;
38859;SDS011;24609;48.316;16.174;2023-12-28T06:51:19;100.88;;;26.35;;
38859;SDS011;24609;48.316;16.174;2023-12-28T06:53:46;86.38;;;23.48;;
38859;SDS011;24609;48.316;16.174;2023-12-28T06:56:13;130.88;;;27.35;;
38859;SDS011;24609;48.316;16.174;2023-12-28T06:58:40;167.52;;;29.60;;
38859;SDS011;24609;48.316;16.174;2023-12-28T07:01:05;146.52;;;26.65;;
38859;SDS011;24609;48.316;16.174;2023-12-28T07:03:32;106.18;;;25.20;;
38859;SDS011;24609;48.316;16.174;2023-12-28T07:06:01;143.00;;;27.23;;
38859;SDS011;24609;48.316;16.174;2023-12-28T07:08:28;119.75;;;24.95;;
38859;SDS011;24609;48.316;16.174;2023-12-28T07:10:54;138.60;;;30.90;;
38859;SDS011;24609;48.316;16.174;2023-12-28T07:13:20;123.80;;;32.72;;
38859;SDS011;24609;48.316;16.174;2023-12-28T07:15:45;93.13;;;21.92;;
38859;SDS011;24609;48.316;16.174;2023-12-28T07:18:11;110.72;;;25.35;;
38859;SDS011;24609;48.316;16.174;2023-12-28T07:20:37;93.13;;;21.48;;
38859;SDS011;24609;48.316;16.174;2023-12-28T07:23:03;176.73;;;28.60;;
38859;SDS011;24609;48.316;16.174;2023-12-28T07:25:29;126.85;;;26.25;;
38859;SDS011;24609;48.316;16.174;2023-12-28T07:27:54;139.73;;;24.88;;
38859;SDS011;24609;48.316;16.174;2023-12-28T07:30:20;124.55;;;24.63;;
38859;SDS011;24609;48.316;16.174;2023-12-28T07:32:46;156.90;;;27.25;;
38859;SDS011;24609;48.316;16.174;2023-12-28T07:35:11;155.65;;;40.92;;
38859;SDS011;24609;48.316;16.174;2023-12-28T07:37:37;144.57;;;28.38;;
38859;SDS011;24609;48.316;16.174;2023-12-28T07:40:03;140.35;;;32.75;;
38859;SDS011;24609;48.316;16.174;2023-12-28T07:42:29;200.93;;;40.25;;
38859;SDS011;24609;48.316;16.174;2023-12-28T07:44:55;114.43;;;25.50;;
38859;SDS011;24609;48.316;16.174;2023-12-28T07:47:21;109.43;;;21.48;;
38859;SDS011;24609;48.316;16.174;2023-12-28T07:49:47;138.25;;;36.15;;
38859;SDS011;24609;48.316;16.174;2023-12-28T07:52:12;96.20;;;23.58;;
38859;SDS011;24609;48.316;16.174;2023-12-28T07:54:38;76.63;;;21.25;;
38859;SDS011;24609;48.316;16.174;2023-12-28T07:57:04;98.63;;;24.70;;
38859;SDS011;24609;48.316;16.174;2023-12-28T07:59:29;121.45;;;31.52;;
38859;SDS011;24609;48.316;16.174;2023-12-28T08:01:55;159.75;;;33.20;;
38859;SDS011;24609;48.316;16.174;2023-12-28T08:04:21;127.43;;;28.75;;
38859;SDS011;24609;48.316;16.174;2023-12-28T08:06:47;120.70;;;22.40;;
38859;SDS011;24609;48.316;16.174;2023-12-28T08:09:13;70.68;;;18.40;;
38859;SDS011;24609;48.316;16.174;2023-12-28T08:11:39;102.28;;;19.45;;
38859;SDS011;24609;48.316;16.174;2023-12-28T08:14:04;146.38;;;21.17;;
38859;SDS011;24609;48.316;16.174;2023-12-28T08:16:30;126.80;;;19.02;;
38859;SDS011;24609;48.316;16.174;2023-12-28T08:18:56;161.93;;;23.98;;
38859;SDS011;24609;48.316;16.174;2023-12-28T08:21:22;151.55;;;25.42;;
38859;SDS011;24609;48.316;16.174;2023-12-28T08:23:48;159.70;;;27.67;;
38859;SDS011;24609;48.316;16.174;2023-12-28T08:26:14;204.63;;;29.77;;
38859;SDS011;24609;48.316;16.174;2023-12-28T08:28:39;197.73;;;27.58;;
38859;SDS011;24609;48.316;16.174;2023-12-28T08:31:05;132.48;;;19.70;;
38859;SDS011;24609;48.316;16.174;2023-12-28T08:33:33;163.73;;;26.60;;
38859;SDS011;24609;48.316;16.174;2023-12-28T08:36:00;171.13;;;24.85;;
38859;SDS011;24609;48.316;16.174;2023-12-28T08:38:28;93.97;;;18.77;;
38859;SDS011;24609;48.316;16.174;2023-12-28T08:40:53;119.55;;;22.48;;
38859;SDS011;24609;48.316;16.174;2023-12-28T08:43:19;128.23;;;22.65;;
38859;SDS011;24609;48.316;16.174;2023-12-28T08:45:45;120.10;;;18.77;;
38859;SDS011;24609;48.316;16.174;2023-12-28T08:48:10;96.90;;;17.83;;
38859;SDS011;24609;48.316;16.174;2023-12-28T08:50:36;120.28;;;18.80;;
38859;SDS011;24609;48.316;16.174;2023-12-28T08:53:02;120.75;;;18.90;;
38859;SDS011;24609;48.316;16.174;2023-12-28T08:55:28;127.97;;;17.38;;
38859;SDS011;24609;48.316;16.174;2023-12-28T08:57:53;98.03;;;16.00;;
38859;SDS011;24609;48.316;16.174;2023-12-28T09:00:19;97.75;;;16.80;;
38859;SDS011;24609;48.316;16.174;2023-12-28T09:02:45;90.70;;;16.05;;
38859;SDS011;24609;48.316;16.174;2023-12-28T09:05:10;82.50;;;17.98;;
38859;SDS011;24609;48.316;16.174;2023-12-28T09:07:36;89.05;;;18.58;;
38859;SDS011;24609;48.316;16.174;2023-12-28T09:10:07;103.43;;;17.27;;
38859;SDS011;24609;48.316;16.174;2023-12-28T09:12:36;49.50;;;15.43;;
38859;SDS011;24609;48.316;16.174;2023-12-28T09:15:06;58.13;;;17.25;;
38859;SDS011;24609;48.316;16.174;2023-12-28T09:17:32;109.63;;;16.88;;
38859;SDS011;24609;48.316;16.174;2023-12-28T09:19:58;103.72;;;18.30;;
38859;SDS011;24609;48.316;16.174;2023-12-28T09:22:26;122.22;;;16.77;;
38859;SDS011;24609;48.316;16.174;2023-12-28T09:24:52;67.60;;;16.48;;
38859;SDS011;24609;48.316;16.174;2023-12-28T09:27:17;79.80;;;16.13;;
38859;SDS011;24609;48.316;16.174;2023-12-28T09:29:43;93.85;;;20.10;;
38859;SDS011;24609;48.316;16.174;2023-12-28T09:32:09;85.15;;;16.33;;
38859;SDS011;24609;48.316;16.174;2023-12-28T09:34:34;67.13;;;16.10;;
38859;SDS011;24609;48.316;16.174;2023-12-28T09:37:00;67.50;;;16.13;;
38859;SDS011;24609;48.316;16.174;2023-12-28T09:39:26;53.45;;;16.05;;
38859;SDS011;24609;48.316;16.174;2023-12-28T09:41:59;90.95;;;16.60;;
38859;SDS011;24609;48.316;16.174;2023-12-28T09:44:30;126.75;;;18.83;;
38859;SDS011;24609;48.316;16.174;2023-12-28T09:46:56;81.88;;;16.25;;
38859;SDS011;24609;48.316;16.174;2023-12-28T09:49:23;147.70;;;25.73;;
38859;SDS011;24609;48.316;16.174;2023-12-28T09:51:49;98.75;;;16.25;;
38859;SDS011;24609;48.316;16.174;2023-12-28T09:54:14;96.07;;;21.00;;
38859;SDS011;24609;48.316;16.174;2023-12-28T09:56:40;60.35;;;15.82;;
38859;SDS011;24609;48.316;16.174;2023-12-28T09:59:06;78.03;;;16.95;;
38859;SDS011;24609;48.316;16.174;2023-12-28T10:01:35;82.13;;;16.30;;
38859;SDS011;24609;48.316;16.174;2023-12-28T10:04:01;102.03;;;18.75;;
38859;SDS011;24609;48.316;16.174;2023-12-28T10:06:33;76.45;;;16.88;;
38859;SDS011;24609;48.316;16.174;2023-12-28T10:08:58;87.75;;;18.15;;
38859;SDS011;24609;48.316;16.174;2023-12-28T10:11:24;53.33;;;18.15;;
38859;SDS011;24609;48.316;16.174;2023-12-28T10:13:53;75.18;;;17.55;;
38859;SDS011;24609;48.316;16.174;2023-12-28T10:16:18;64.20;;;17.23;;
38859;SDS011;24609;48.316;16.174;2023-12-28T10:18:44;69.82;;;17.38;;
38859;SDS011;24609;48.316;16.174;2023-12-28T10:21:11;97.55;;;20.75;;
38859;SDS011;24609;48.316;16.174;2023-12-28T10:23:40;78.75;;;18.90;;
38859;SDS011;24609;48.316;16.174;2023-12-28T10:26:06;71.72;;;18.27;;
38859;SDS011;24609;48.316;16.174;2023-12-28T10:28:34;76.85;;;18.42;;
38859;SDS011;24609;48.316;16.174;2023-12-28T10:31:01;67.00;;;18.17;;
38859;SDS011;24609;48.316;16.174;2023-12-28T10:33:27;86.28;;;20.27;;
38859;SDS011;24609;48.316;16.174;2023-12-28T10:35:52;50.47;;;17.85;;
38859;SDS011;24609;48.316;16.174;2023-12-28T10:38:23;47.65;;;18.70;;
38859;SDS011;24609;48.316;16.174;2023-12-28T10:40:52;40.10;;;17.58;;
38859;SDS011;24609;48.316;16.174;2023-12-28T10:43:19;62.15;;;20.83;;
38859;SDS011;24609;48.316;16.174;2023-12-28T10:45:50;43.35;;;18.88;;
38859;SDS011;24609;48.316;16.174;2023-12-28T10:48:19;75.00;;;21.67;;
38859;SDS011;24609;48.316;16.174;2023-12-28T10:50:54;74.20;;;19.42;;
38859;SDS011;24609;48.316;16.174;2023-12-28T10:58:40;127.63;;;22.98;;
38859;SDS011;24609;48.316;16.174;2023-12-28T11:01:07;81.40;;;20.48;;
38859;SDS011;24609;48.316;16.174;2023-12-28T11:06:04;130.27;;;27.35;;
38859;SDS011;24609;48.316;16.174;2023-12-28T11:08:30;84.68;;;23.50;;
38859;SDS011;24609;48.316;16.174;2023-12-28T11:10:57;123.22;;;26.88;;
38859;SDS011;24609;48.316;16.174;2023-12-28T11:13:26;114.18;;;26.30;;
38859;SDS011;24609;48.316;16.174;2023-12-28T11:15:55;120.35;;;25.30;;
38859;SDS011;24609;48.316;16.174;2023-12-28T11:18:22;125.32;;;24.52;;
38859;SDS011;24609;48.316;16.174;2023-12-28T11:20:49;178.43;;;28.20;;
38859;SDS011;24609;48.316;16.174;2023-12-28T11:23:15;135.43;;;29.13;;
38859;SDS011;24609;48.316;16.174;2023-12-28T11:25:42;93.82;;;28.35;;
38859;SDS011;24609;48.316;16.174;2023-12-28T11:28:10;84.57;;;22.33;;
38859;SDS011;24609;48.316;16.174;2023-12-28T11:30:41;114.05;;;25.48;;
38859;SDS011;24609;48.316;16.174;2023-12-28T11:33:07;169.40;;;37.10;;
38859;SDS011;24609;48.316;16.174;2023-12-28T11:35:39;130.30;;;27.67;;
38859;SDS011;24609;48.316;16.174;2023-12-28T11:38:06;129.02;;;26.98;;
38859;SDS011;24609;48.316;16.174;2023-12-28T11:40:55;155.70;;;25.30;;
38859;SDS011;24609;48.316;16.174;2023-12-28T11:43:22;171.00;;;26.58;;
38859;SDS011;24609;48.316;16.174;2023-12-28T11:45:49;200.98;;;26.13;;
38859;SDS011;24609;48.316;16.174;2023-12-28T11:48:25;288.23;;;32.03;;
38859;SDS011;24609;48.316;16.174;2023-12-28T11:50:55;92.10;;;22.08;;
38859;SDS011;24609;48.316;16.174;2023-12-28T11:53:24;111.43;;;23.08;;
38859;SDS011;24609;48.316;16.174;2023-12-28T11:55:51;45.22;;;22.35;;
38859;SDS011;24609;48.316;16.174;2023-12-28T11:58:17;57.17;;;22.15;;
38859;SDS011;24609;48.316;16.174;2023-12-28T12:00:44;76.38;;;21.52;;
38859;SDS011;24609;48.316;16.174;2023-12-28T12:03:10;78.03;;;21.85;;
38859;SDS011;24609;48.316;16.174;2023-12-28T12:05:36;132.98;;;25.55;;
38859;SDS011;24609;48.316;16.174;2023-12-28T12:08:02;39.08;;;19.98;;
38859;SDS011;24609;48.316;16.174;2023-12-28T12:10:29;47.55;;;19.35;;
38859;SDS011;24609;48.316;16.174;2023-12-28T12:12:57;87.82;;;23.25;;
38859;SDS011;24609;48.316;16.174;2023-12-28T12:15:23;86.80;;;23.23;;
38859;SDS011;24609;48.316;16.174;2023-12-28T12:17:48;137.75;;;24.83;;
38859;SDS011;24609;48.316;16.174;2023-12-28T12:20:15;36.17;;;18.88;;
38859;SDS011;24609;48.316;16.174;2023-12-28T12:22:40;61.80;;;20.38;;
38859;SDS011;24609;48.316;16.174;2023-12-28T12:25:06;87.72;;;22.05;;
38859;SDS011;24609;48.316;16.174;2023-12-28T12:27:34;184.82;;;35.05;;
38859;SDS011;24609;48.316;16.174;2023-12-28T12:30:01;93.55;;;24.92;;
38859;SDS011;24609;48.316;16.174;2023-12-28T12:32:28;42.58;;;20.55;;
38859;SDS011;24609;48.316;16.174;2023-12-28T12:34:54;68.25;;;20.33;;
38859;SDS011;24609;48.316;16.174;2023-12-28T12:37:20;134.80;;;31.23;;
38859;SDS011;24609;48.316;16.174;2023-12-28T12:39:46;72.55;;;21.17;;
38859;SDS011;24609;48.316;16.174;2023-12-28T12:42:15;158.45;;;31.08;;
38859;SDS011;24609;48.316;16.174;2023-12-28T12:44:41;170.30;;;30.88;;
38859;SDS011;24609;48.316;16.174;2023-12-28T12:47:07;147.48;;;31.88;;
38859;SDS011;24609;48.316;16.174;2023-12-28T12:49:33;85.10;;;26.13;;
38859;SDS011;24609;48.316;16.174;2023-12-28T12:51:59;235.38;;;38.95;;
38859;SDS011;24609;48.316;16.174;2023-12-28T12:54:26;52.33;;;22.60;;
38859;SDS011;24609;48.316;16.174;2023-12-28T12:56:51;51.55;;;20.95;;
38859;SDS011;24609;48.316;16.174;2023-12-28T12:59:17;171.82;;;30.50;;
38859;SDS011;24609;48.316;16.174;2023-12-28T13:01:44;96.18;;;25.02;;
38859;SDS011;24609;48.316;16.174;2023-12-28T13:04:10;77.80;;;23.23;;
38859;SDS011;24609;48.316;16.174;2023-12-28T13:06:37;74.18;;;24.33;;
38859;SDS011;24609;48.316;16.174;2023-12-28T13:09:03;89.28;;;24.05;;
38859;SDS011;24609;48.316;16.174;2023-12-28T13:11:32;90.25;;;27.05;;
38859;SDS011;24609;48.316;16.174;2023-12-28T13:14:00;70.35;;;23.20;;
38859;SDS011;24609;48.316;16.174;2023-12-28T13:16:26;88.70;;;23.85;;
38859;SDS011;24609;48.316;16.174;2023-12-28T13:18:51;114.20;;;22.27;;
38859;SDS011;24609;48.316;16.174;2023-12-28T13:21:17;99.88;;;22.05;;
38859;SDS011;24609;48.316;16.174;2023-12-28T13:23:43;124.22;;;24.45;;
38859;SDS011;24609;48.316;16.174;2023-12-28T13:26:08;77.40;;;20.88;;
38859;SDS011;24609;48.316;16.174;2023-12-28T13:28:34;48.10;;;19.48;;
38859;SDS011;24609;48.316;16.174;2023-12-28T13:31:00;101.65;;;21.10;;
38859;SDS011;24609;48.316;16.174;2023-12-28T13:33:26;103.38;;;24.77;;
38859;SDS011;24609;48.316;16.174;2023-12-28T13:35:51;81.55;;;25.88;;
38859;SDS011;24609;48.316;16.174;2023-12-28T13:38:17;73.75;;;26.88;;
38859;SDS011;24609;48.316;16.174;2023-12-28T13:40:43;50.25;;;22.85;;
38859;SDS011;24609;48.316;16.174;2023-12-28T13:43:09;120.57;;;24.90;;
38859;SDS011;24609;48.316;16.174;2023-12-28T13:45:35;69.18;;;22.52;;
38859;SDS011;24609;48.316;16.174;2023-12-28T13:48:01;128.07;;;29.88;;
38859;SDS011;24609;48.316;16.174;2023-12-28T13:50:27;106.63;;;28.77;;
38859;SDS011;24609;48.316;16.174;2023-12-28T13:52:53;128.15;;;33.63;;
38859;SDS011;24609;48.316;16.174;2023-12-28T13:55:19;47.60;;;23.63;;
38859;SDS011;24609;48.316;16.174;2023-12-28T13:57:44;57.80;;;25.58;;
38859;SDS011;24609;48.316;16.174;2023-12-28T14:00:10;58.03;;;23.90;;
38859;SDS011;24609;48.316;16.174;2023-12-28T14:02:37;170.52;;;26.73;;
38859;SDS011;24609;48.316;16.174;2023-12-28T14:05:02;76.65;;;22.98;;
38859;SDS011;24609;48.316;16.174;2023-12-28T14:07:28;61.30;;;22.95;;
38859;SDS011;24609;48.316;16.174;2023-12-28T14:09:54;91.40;;;25.63;;
38859;SDS011;24609;48.316;16.174;2023-12-28T14:12:19;49.40;;;21.85;;
38859;SDS011;24609;48.316;16.174;2023-12-28T14:14:45;84.05;;;25.92;;
38859;SDS011;24609;48.316;16.174;2023-12-28T14:17:11;80.32;;;23.58;;
38859;SDS011;24609;48.316;16.174;2023-12-28T14:19:36;117.40;;;26.15;;